createdAt,value
2022-12-03T00:00:04.101Z,100125.00
2022-12-03T00:02:37.007Z,100134.00
2022-12-03T00:05:05.818Z,100142.00
2022-12-03T00:07:34.011Z,100122.00
2022-12-03T00:10:02.049Z,100126.00
2022-12-03T00:12:30.047Z,100107.00
2022-12-03T00:14:58.362Z,100114.00
2022-12-03T00:17:26.611Z,100128.00
2022-12-03T00:19:56.007Z,100119.00
2022-12-03T00:22:24.104Z,100118.00
2022-12-03T00:24:52.326Z,100122.00
2022-12-03T00:27:20.515Z,100125.00
2022-12-03T00:29:48.556Z,100117.00
2022-12-03T00:32:16.572Z,100126.00
2022-12-03T00:34:44.593Z,100133.00
2022-12-03T00:37:14.118Z,100126.00
2022-12-03T00:39:42.149Z,100133.00
2022-12-03T00:42:10.172Z,100129.00
2022-12-03T00:44:38.289Z,100125.00
2022-12-03T00:47:06.473Z,100128.00
2022-12-03T00:49:34.545Z,100123.00
2022-12-03T00:52:02.843Z,100119.00
2022-12-03T00:54:32.444Z,100123.00
2022-12-03T00:57:00.713Z,100118.00
2022-12-03T00:59:28.773Z,100121.00
2022-12-03T01:01:57.084Z,100116.00
2022-12-03T01:04:25.202Z,100118.00
2022-12-03T01:06:53.277Z,100114.00
2022-12-03T01:09:21.316Z,100119.00
2022-12-03T01:11:50.678Z,100113.00
2022-12-03T01:14:21.259Z,100126.00
2022-12-03T01:16:50.097Z,100120.00
2022-12-03T01:19:19.355Z,100119.00
2022-12-03T01:21:51.464Z,100116.00
2022-12-03T01:24:20.865Z,100118.00
2022-12-03T01:26:50.281Z,100112.00
2022-12-03T01:29:18.291Z,100113.00
2022-12-03T01:32:03.988Z,100104.00
2022-12-03T01:34:32.089Z,100116.00
2022-12-03T01:37:00.195Z,100114.00
2022-12-03T01:39:28.398Z,100115.00
2022-12-03T01:41:59.046Z,100119.00
2022-12-03T01:44:31.330Z,100104.00
2022-12-03T01:47:03.951Z,100111.00
2022-12-03T01:49:39.079Z,100103.00
2022-12-03T01:52:12.378Z,100107.00
2022-12-03T01:54:46.117Z,100094.00
2022-12-03T01:57:24.116Z,100110.00
2022-12-03T01:59:54.854Z,100110.00
2022-12-03T02:02:28.115Z,100101.00
2022-12-03T02:04:56.837Z,100104.00
2022-12-03T02:07:29.573Z,100103.00
2022-12-03T02:10:01.943Z,100101.00
2022-12-03T02:12:37.214Z,100098.00
2022-12-03T02:15:08.118Z,100090.00
2022-12-03T02:17:36.524Z,100094.00
2022-12-03T02:20:08.940Z,100105.00
2022-12-03T02:22:45.115Z,100097.00
2022-12-03T02:25:18.108Z,100104.00
2022-12-03T02:27:48.118Z,100090.00
2022-12-03T02:30:19.993Z,100099.00
2022-12-03T02:32:49.353Z,100103.00
2022-12-03T02:35:20.062Z,100107.00
2022-12-03T02:37:52.255Z,100094.00
2022-12-03T02:40:25.781Z,100094.00
2022-12-03T02:42:59.110Z,100102.00
2022-12-03T02:45:31.759Z,100105.00
2022-12-03T02:48:07.588Z,100104.00
2022-12-03T02:50:39.300Z,100119.00
2022-12-03T02:53:10.704Z,100112.00
2022-12-03T02:55:41.579Z,100110.00
2022-12-03T02:58:12.170Z,100116.00
2022-12-03T03:00:42.832Z,100095.00
2022-12-03T03:03:12.005Z,100096.00
2022-12-03T03:05:41.771Z,100113.00
2022-12-03T03:08:12.492Z,100112.00
2022-12-03T03:10:44.820Z,100104.00
2022-12-03T03:13:17.775Z,100106.00
2022-12-03T03:19:46.043Z,100104.00
2022-12-03T03:22:34.560Z,100103.00
2022-12-03T03:25:03.139Z,100094.00
2022-12-03T03:27:33.368Z,100103.00
2022-12-03T03:30:01.751Z,100099.00
2022-12-03T03:32:31.405Z,100106.00
2022-12-03T03:34:59.651Z,100101.00
2022-12-03T03:37:29.133Z,100085.00
2022-12-03T03:39:57.672Z,100098.00
2022-12-03T03:42:26.346Z,100099.00
2022-12-03T03:44:56.110Z,100092.00
2022-12-03T03:47:24.667Z,100098.00
2022-12-03T03:49:53.265Z,100101.00
2022-12-03T03:52:21.852Z,100063.00
2022-12-03T03:54:50.180Z,100093.00
2022-12-03T03:57:18.477Z,100106.00
2022-12-03T03:59:47.003Z,100095.00
2022-12-03T04:02:22.218Z,100086.00
2022-12-03T04:04:51.843Z,100095.00
2022-12-03T04:07:20.243Z,100084.00
2022-12-03T04:09:48.292Z,100083.00
2022-12-03T04:12:34.291Z,100076.00
2022-12-03T04:15:02.354Z,100087.00
2022-12-03T04:17:31.914Z,100084.00
2022-12-03T04:19:59.927Z,100086.00
2022-12-03T04:22:42.440Z,100073.00
2022-12-03T04:25:29.106Z,100081.00
2022-12-03T04:28:14.816Z,100085.00
2022-12-03T04:30:43.123Z,100086.00
2022-12-03T04:33:29.947Z,100076.00
2022-12-03T04:35:57.995Z,100083.00
2022-12-03T04:38:26.122Z,100083.00
2022-12-03T04:41:04.185Z,100079.00
2022-12-03T04:43:55.155Z,100085.00
2022-12-03T04:46:23.308Z,100081.00
2022-12-03T04:48:52.706Z,100085.00
2022-12-03T04:51:20.747Z,100080.00
2022-12-03T04:53:48.766Z,100075.00
2022-12-03T04:56:16.797Z,100078.00
2022-12-03T04:58:45.193Z,100079.00
2022-12-03T05:01:13.260Z,100073.00
2022-12-03T05:03:41.436Z,100070.00
2022-12-03T05:06:10.885Z,100076.00
2022-12-03T05:08:38.935Z,100070.00
2022-12-03T05:11:07.382Z,100073.00
2022-12-03T05:13:35.488Z,100066.00
2022-12-03T05:16:03.572Z,100062.00
2022-12-03T05:18:31.661Z,100063.00
2022-12-03T05:20:58.871Z,100054.00
2022-12-03T05:23:28.329Z,100063.00
2022-12-03T05:25:56.370Z,100053.00
2022-12-03T05:28:24.382Z,100057.00
2022-12-03T05:30:52.758Z,100065.00
2022-12-03T05:33:21.399Z,100052.00
2022-12-03T05:35:49.519Z,100056.00
2022-12-03T05:38:17.568Z,100053.00
2022-12-03T05:40:47.003Z,100058.00
2022-12-03T05:43:14.124Z,100054.00
2022-12-03T05:45:44.381Z,100048.00
2022-12-03T05:48:15.615Z,100059.00
2022-12-03T05:50:46.150Z,100057.00
2022-12-03T05:53:19.250Z,100059.00
2022-12-03T05:55:48.634Z,100063.00
2022-12-03T05:58:16.669Z,100059.00
2022-12-03T06:00:44.718Z,100051.00
2022-12-03T06:03:12.856Z,100060.00
2022-12-03T06:05:41.026Z,100062.00
2022-12-03T06:08:09.186Z,100056.00
2022-12-03T06:10:37.516Z,100053.00
2022-12-03T06:13:06.929Z,100060.00
2022-12-03T06:15:38.881Z,100058.00
2022-12-03T06:18:11.431Z,100052.00
2022-12-03T06:20:39.734Z,100050.00
2022-12-03T06:23:07.833Z,100054.00
2022-12-03T06:25:35.899Z,100053.00
2022-12-03T06:28:04.002Z,100063.00
2022-12-03T06:30:34.195Z,100052.00
2022-12-03T06:33:02.580Z,100038.00
2022-12-03T06:35:30.627Z,100067.00
2022-12-03T06:37:58.678Z,100057.00
2022-12-03T06:40:27.042Z,100058.00
2022-12-03T06:42:55.061Z,100054.00
2022-12-03T06:45:23.096Z,100066.00
2022-12-03T06:47:52.526Z,100066.00
2022-12-03T06:50:20.940Z,100073.00
2022-12-03T06:52:48.963Z,100067.00
2022-12-03T06:55:17.219Z,100059.00
2022-12-03T06:57:45.331Z,100059.00
2022-12-03T07:00:14.891Z,100063.00
2022-12-03T07:02:44.557Z,100074.00
2022-12-03T07:05:16.138Z,100061.00
2022-12-03T07:07:44.239Z,100054.00
2022-12-03T07:10:14.711Z,100069.00
2022-12-03T07:12:42.972Z,100055.00
2022-12-03T07:15:12.058Z,100058.00
2022-12-03T07:17:40.262Z,100060.00
2022-12-03T07:20:10.389Z,100061.00
2022-12-03T07:22:39.930Z,100067.00
2022-12-03T07:25:09.514Z,100059.00
2022-12-03T07:27:37.588Z,100059.00
2022-12-03T07:30:07.732Z,100065.00
2022-12-03T07:32:35.812Z,100063.00
2022-12-03T07:35:07.210Z,100060.00
2022-12-03T07:37:35.441Z,100054.00
2022-12-03T07:40:07.083Z,100062.00
2022-12-03T07:42:35.214Z,100054.00
2022-12-03T07:45:03.529Z,100058.00
2022-12-03T07:47:31.956Z,100052.00
2022-12-03T07:49:59.998Z,100063.00
2022-12-03T07:52:28.054Z,100056.00
2022-12-03T07:54:56.266Z,100057.00
2022-12-03T07:57:25.911Z,100054.00
2022-12-03T07:59:53.932Z,100063.00
2022-12-03T08:02:22.158Z,100060.00
2022-12-03T08:04:50.620Z,100063.00
2022-12-03T08:07:18.859Z,100061.00
2022-12-03T08:09:46.943Z,100053.00
2022-12-03T08:12:19.037Z,100055.00
2022-12-03T08:14:48.355Z,100054.00
2022-12-03T08:17:18.515Z,100059.00
2022-12-03T08:19:48.322Z,100057.00
2022-12-03T08:22:17.385Z,100055.00
2022-12-03T08:24:45.531Z,100055.00
2022-12-03T08:27:20.380Z,100056.00
2022-12-03T08:29:49.764Z,100056.00
2022-12-03T08:32:17.880Z,100044.00
2022-12-03T08:34:46.163Z,100042.00
2022-12-03T08:37:18.502Z,100040.00
2022-12-03T08:39:49.102Z,100036.00
2022-12-03T08:42:40.624Z,100039.00
2022-12-03T08:45:41.441Z,100036.00
2022-12-03T08:48:32.471Z,100032.00
2022-12-03T08:51:05.155Z,100034.00
2022-12-03T08:53:37.968Z,100043.00
2022-12-03T08:56:20.360Z,100049.00
2022-12-03T08:58:52.153Z,100047.00
2022-12-03T09:01:33.225Z,100055.00
2022-12-03T09:04:22.290Z,100060.00
2022-12-03T09:06:51.405Z,100058.00
2022-12-03T09:09:20.114Z,100052.00
2022-12-03T09:11:48.464Z,100045.00
2022-12-03T09:14:21.039Z,100052.00
2022-12-03T09:16:51.965Z,100053.00
2022-12-03T09:19:20.210Z,100045.00
2022-12-03T09:21:48.327Z,100043.00
2022-12-03T09:24:16.584Z,100045.00
2022-12-03T09:26:44.642Z,100043.00
2022-12-03T09:29:13.113Z,100042.00
2022-12-03T09:31:41.660Z,100050.00
2022-12-03T09:34:11.368Z,100046.00
2022-12-03T09:36:39.493Z,100052.00
2022-12-03T09:39:08.596Z,100049.00
2022-12-03T09:41:37.281Z,100054.00
2022-12-03T09:44:07.794Z,100052.00
2022-12-03T09:46:40.969Z,100050.00
2022-12-03T09:49:16.205Z,100057.00
2022-12-03T09:51:45.824Z,100050.00
2022-12-03T09:54:24.938Z,100051.00
2022-12-03T09:56:54.260Z,100054.00
2022-12-03T09:59:24.291Z,100052.00
2022-12-03T10:01:53.724Z,100045.00
2022-12-03T10:04:23.350Z,100047.00
2022-12-03T10:06:52.368Z,100036.00
2022-12-03T10:09:25.893Z,100045.00
2022-12-03T10:11:54.070Z,100043.00
2022-12-03T10:14:22.221Z,100040.00
2022-12-03T10:16:50.696Z,100028.00
2022-12-03T10:19:27.008Z,100038.00
2022-12-03T10:21:55.623Z,100036.00
2022-12-03T10:24:28.752Z,100032.00
2022-12-03T10:26:59.323Z,100029.00
2022-12-03T10:29:33.891Z,100016.00
2022-12-03T10:32:05.329Z,100016.00
2022-12-03T10:34:37.294Z,100011.00
2022-12-03T10:37:16.940Z,99997.00
2022-12-03T10:39:58.541Z,100005.00
2022-12-03T10:42:29.281Z,100008.00
2022-12-03T10:45:20.816Z,100000.00
2022-12-03T10:48:07.982Z,100004.00
2022-12-03T10:50:37.474Z,100002.00
2022-12-03T10:53:05.796Z,99995.00
2022-12-03T10:55:40.408Z,100004.00
2022-12-03T10:58:21.447Z,99995.00
2022-12-03T11:00:50.661Z,99985.00
2022-12-03T11:03:22.772Z,99994.00
2022-12-03T11:05:54.639Z,99997.00
2022-12-03T11:08:26.515Z,99993.00
2022-12-03T11:10:59.709Z,99989.00
2022-12-03T11:13:53.024Z,99988.00
2022-12-03T11:17:07.700Z,99982.00
2022-12-03T11:19:59.863Z,99984.00
2022-12-03T11:22:43.176Z,99965.00
2022-12-03T11:25:47.672Z,99974.00
2022-12-03T11:28:52.094Z,99975.00
2022-12-03T11:31:40.602Z,99970.00
2022-12-03T11:34:44.930Z,99976.00
2022-12-03T11:37:27.480Z,99965.00
2022-12-03T11:40:31.500Z,99965.00
2022-12-03T11:43:02.868Z,99967.00
2022-12-03T11:45:35.593Z,99963.00
2022-12-03T11:48:13.179Z,99968.00
2022-12-03T11:50:45.273Z,99971.00
2022-12-03T11:53:19.960Z,99956.00
2022-12-03T11:56:05.988Z,99957.00
2022-12-03T11:58:35.934Z,99946.00
2022-12-03T12:01:07.118Z,99955.00
2022-12-03T12:03:37.942Z,99965.00
2022-12-03T12:06:09.241Z,99959.00
2022-12-03T12:08:40.938Z,99961.00
2022-12-03T12:11:21.075Z,99965.00
2022-12-03T12:13:55.571Z,99970.00
2022-12-03T12:16:51.251Z,99961.00
2022-12-03T12:19:39.888Z,99942.00
2022-12-03T12:22:21.464Z,99952.00
2022-12-03T12:24:52.683Z,99952.00
2022-12-03T12:27:30.855Z,99949.00
2022-12-03T12:30:02.083Z,99945.00
2022-12-03T12:32:33.271Z,99943.00
2022-12-03T12:35:16.422Z,99916.00
2022-12-03T12:37:59.033Z,99927.00
2022-12-03T12:40:35.194Z,99926.00
2022-12-03T12:43:23.566Z,99920.00
2022-12-03T12:45:54.809Z,99920.00
2022-12-03T12:48:27.717Z,99908.00
2022-12-03T12:51:02.784Z,99916.00
2022-12-03T12:53:34.165Z,99910.00
2022-12-03T12:56:23.825Z,99905.00
2022-12-03T12:58:53.793Z,99904.00
2022-12-03T13:01:26.885Z,99908.00
2022-12-03T13:03:55.627Z,99899.00
2022-12-03T13:06:28.693Z,99882.00
2022-12-03T13:09:01.036Z,99891.00
2022-12-03T13:11:41.461Z,99878.00
2022-12-03T13:14:18.675Z,99879.00
2022-12-03T13:16:49.105Z,99895.00
2022-12-03T13:19:28.930Z,99876.00
2022-12-03T13:21:59.588Z,99893.00
2022-12-03T13:24:34.238Z,99892.00
2022-12-03T13:27:21.772Z,99881.00
2022-12-03T13:29:57.019Z,99878.00
2022-12-03T13:32:31.819Z,99887.00
2022-12-03T13:35:07.959Z,99897.00
2022-12-03T13:37:36.040Z,99886.00
2022-12-03T13:40:21.000Z,99886.00
2022-12-03T13:42:49.084Z,99890.00
2022-12-03T13:45:36.746Z,99890.00
2022-12-03T13:48:22.377Z,99894.00
2022-12-03T13:50:52.502Z,99889.00
2022-12-03T13:53:27.668Z,99886.00
2022-12-03T13:56:00.992Z,99880.00
2022-12-03T13:58:29.086Z,99876.00
2022-12-03T14:00:58.509Z,99880.00
2022-12-03T14:03:26.657Z,99888.00
2022-12-03T14:05:54.710Z,99891.00
2022-12-03T14:08:22.747Z,99894.00
2022-12-03T14:10:55.482Z,99885.00
2022-12-03T14:13:26.730Z,99862.00
2022-12-03T14:15:54.792Z,99881.00
2022-12-03T14:18:24.218Z,99882.00
2022-12-03T14:20:52.310Z,99883.00
2022-12-03T14:23:20.317Z,99896.00
2022-12-03T14:25:48.382Z,99887.00
2022-12-03T14:28:16.495Z,99883.00
2022-12-03T14:30:44.552Z,99892.00
2022-12-03T14:33:12.843Z,99881.00
2022-12-03T14:35:42.264Z,99875.00
2022-12-03T14:38:10.455Z,99883.00
2022-12-03T14:40:38.583Z,99881.00
2022-12-03T14:43:05.666Z,99881.00
2022-12-03T14:45:33.701Z,99887.00
2022-12-03T14:48:01.892Z,99884.00
2022-12-03T14:50:30.140Z,99874.00
2022-12-03T14:52:59.613Z,99876.00
2022-12-03T14:55:27.658Z,99886.00
2022-12-03T14:57:55.707Z,99883.00
2022-12-03T15:00:24.084Z,99871.00
2022-12-03T15:02:52.239Z,99877.00
2022-12-03T15:05:28.034Z,99897.00
2022-12-03T15:07:57.394Z,99889.00
2022-12-03T15:10:26.867Z,99885.00
2022-12-03T15:12:54.873Z,99898.00
2022-12-03T15:15:22.944Z,99888.00
2022-12-03T15:17:51.005Z,99895.00
2022-12-03T15:20:19.684Z,99891.00
2022-12-03T15:22:47.716Z,99893.00
2022-12-03T15:25:15.997Z,99896.00
2022-12-03T15:27:45.375Z,99887.00
2022-12-03T15:30:13.732Z,99880.00
2022-12-03T15:32:41.784Z,99891.00
2022-12-03T15:35:13.482Z,99885.00
2022-12-03T15:37:41.521Z,99884.00
2022-12-03T15:40:11.322Z,99881.00
2022-12-03T15:42:39.350Z,99889.00
2022-12-03T15:45:14.995Z,99881.00
2022-12-03T15:47:43.578Z,99887.00
2022-12-03T15:50:13.216Z,99885.00
2022-12-03T15:52:41.706Z,99883.00
2022-12-03T15:55:10.984Z,99880.00
2022-12-03T15:57:39.133Z,99879.00
2022-12-03T16:00:13.269Z,99881.00
2022-12-03T16:02:41.538Z,99873.00
2022-12-03T16:05:13.345Z,99872.00
2022-12-03T16:07:41.813Z,99866.00
2022-12-03T16:10:12.696Z,99872.00
2022-12-03T16:12:40.709Z,99878.00
2022-12-03T16:15:10.945Z,99880.00
2022-12-03T16:17:39.096Z,99874.00
2022-12-03T16:20:09.139Z,99867.00
2022-12-03T16:22:37.180Z,99883.00
2022-12-03T16:25:07.136Z,99878.00
2022-12-03T16:27:36.957Z,99874.00
2022-12-03T16:30:07.267Z,99876.00
2022-12-03T16:32:36.755Z,99871.00
2022-12-03T16:35:05.649Z,99864.00
2022-12-03T16:37:33.715Z,99864.00
2022-12-03T16:40:02.797Z,99859.00
2022-12-03T16:42:30.877Z,99859.00
2022-12-03T16:45:33.517Z,99857.00
2022-12-03T16:48:03.856Z,99865.00
2022-12-03T16:50:31.895Z,99866.00
2022-12-03T16:53:00.021Z,99866.00
2022-12-03T16:55:30.878Z,99871.00
2022-12-03T16:57:58.961Z,99863.00
2022-12-03T17:00:27.271Z,99868.00
2022-12-03T17:02:55.759Z,99864.00
2022-12-03T17:05:25.414Z,99858.00
2022-12-03T17:07:53.607Z,99861.00
2022-12-03T17:10:21.744Z,99860.00
2022-12-03T17:15:38.798Z,99858.00
2022-12-03T17:18:08.388Z,99857.00
2022-12-03T17:20:38.714Z,99856.00
2022-12-03T17:23:06.793Z,99854.00
2022-12-03T17:25:35.343Z,99861.00
2022-12-03T17:28:03.720Z,99858.00
2022-12-03T17:30:31.831Z,99847.00
2022-12-03T17:32:59.842Z,99850.00
2022-12-03T17:35:28.543Z,99844.00
2022-12-03T17:37:58.118Z,99828.00
2022-12-03T17:40:26.566Z,99848.00
2022-12-03T17:42:54.683Z,99833.00
2022-12-03T17:45:22.791Z,99825.00
2022-12-03T17:47:50.884Z,99837.00
2022-12-03T17:50:19.211Z,99831.00
2022-12-03T17:52:47.259Z,99831.00
2022-12-03T17:55:27.737Z,99832.00
2022-12-03T17:58:02.122Z,99835.00
2022-12-03T18:00:31.521Z,99835.00
2022-12-03T18:02:59.740Z,99842.00
2022-12-03T18:05:27.851Z,99830.00
2022-12-03T18:07:56.002Z,99832.00
2022-12-03T18:10:25.407Z,99842.00
2022-12-03T18:12:59.844Z,99841.00
2022-12-03T18:15:29.726Z,99845.00
2022-12-03T18:17:57.799Z,99824.00
2022-12-03T18:20:25.950Z,99844.00
2022-12-03T18:22:54.081Z,99841.00
2022-12-03T18:25:22.212Z,99843.00
2022-12-03T18:27:51.649Z,99847.00
2022-12-03T18:30:20.069Z,99842.00
2022-12-03T18:32:48.778Z,99831.00
2022-12-03T18:35:17.016Z,99841.00
2022-12-03T18:37:45.505Z,99825.00
2022-12-03T18:40:22.396Z,99819.00
2022-12-03T18:42:52.076Z,99821.00
2022-12-03T18:45:20.556Z,99831.00
2022-12-03T18:47:48.674Z,99828.00
2022-12-03T18:50:16.943Z,99824.00
2022-12-03T18:52:45.098Z,99825.00
2022-12-03T18:55:20.010Z,99822.00
2022-12-03T18:57:48.550Z,99823.00
2022-12-03T19:00:18.896Z,99826.00
2022-12-03T19:03:03.843Z,99796.00
2022-12-03T19:05:34.806Z,99821.00
2022-12-03T19:08:03.384Z,99826.00
2022-12-03T19:10:31.655Z,99835.00
2022-12-03T19:12:59.680Z,99827.00
2022-12-03T19:15:29.072Z,99829.00
2022-12-03T19:17:57.138Z,99831.00
2022-12-03T19:20:25.215Z,99829.00
2022-12-03T19:22:53.235Z,99828.00
2022-12-03T19:25:21.416Z,99834.00
2022-12-03T19:27:50.730Z,99825.00
2022-12-03T19:30:19.197Z,99831.00
2022-12-03T19:32:51.516Z,99829.00
2022-12-03T19:35:21.232Z,99831.00
2022-12-03T19:37:49.920Z,99830.00
2022-12-03T19:40:18.649Z,99826.00
2022-12-03T19:42:46.739Z,99836.00
2022-12-03T19:45:14.875Z,99830.00
2022-12-03T19:47:42.949Z,99838.00
2022-12-03T19:50:19.350Z,99839.00
2022-12-03T19:52:50.648Z,99840.00
2022-12-03T19:55:19.470Z,99832.00
2022-12-03T19:57:47.545Z,99835.00
2022-12-03T20:00:17.106Z,99842.00
2022-12-03T20:02:45.221Z,99838.00
2022-12-03T20:05:14.653Z,99837.00
2022-12-03T20:07:42.891Z,99840.00
2022-12-03T20:10:11.564Z,99832.00
2022-12-03T20:12:39.744Z,99838.00
2022-12-03T20:15:08.909Z,99831.00
2022-12-03T20:17:40.326Z,99831.00
2022-12-03T20:20:10.284Z,99826.00
2022-12-03T20:22:39.842Z,99832.00
2022-12-03T20:25:09.108Z,99822.00
2022-12-03T20:27:37.707Z,99823.00
2022-12-03T20:30:07.591Z,99809.00
2022-12-03T20:32:41.998Z,99808.00
2022-12-03T20:35:13.118Z,99810.00
2022-12-03T20:37:42.781Z,99811.00
2022-12-03T20:40:12.024Z,99811.00
2022-12-03T20:42:46.054Z,99807.00
2022-12-03T20:45:14.235Z,99806.00
2022-12-03T20:47:42.382Z,99805.00
2022-12-03T20:50:16.135Z,99806.00
2022-12-03T20:53:09.391Z,99813.00
2022-12-03T20:55:34.174Z,99805.00
2022-12-03T20:58:02.741Z,99799.00
2022-12-03T21:00:31.712Z,99797.00
2022-12-03T21:02:59.792Z,99798.00
2022-12-03T21:05:27.978Z,99798.00
2022-12-03T21:07:57.403Z,99803.00
2022-12-03T21:10:44.608Z,99795.00
2022-12-03T21:13:15.363Z,99800.00
2022-12-03T21:15:44.757Z,99795.00
2022-12-03T21:18:15.749Z,99781.00
2022-12-03T21:20:45.695Z,99794.00
2022-12-03T21:23:15.932Z,99803.00
2022-12-03T21:25:43.970Z,99797.00
2022-12-03T21:28:12.038Z,99797.00
2022-12-03T21:30:40.708Z,99795.00
2022-12-03T21:33:08.846Z,99798.00
2022-12-03T21:35:38.118Z,99797.00
2022-12-03T21:38:06.394Z,99795.00
2022-12-03T21:40:35.776Z,99802.00
2022-12-03T21:43:03.882Z,99798.00
2022-12-03T21:45:31.908Z,99790.00
2022-12-03T21:47:59.997Z,99793.00
2022-12-03T21:50:28.169Z,99796.00
2022-12-03T21:52:56.195Z,99787.00
2022-12-03T21:55:24.328Z,99790.00
2022-12-03T21:57:53.846Z,99795.00
2022-12-03T22:00:22.846Z,99800.00
2022-12-03T22:02:52.208Z,99795.00
2022-12-03T22:05:20.500Z,99802.00
2022-12-03T22:07:48.636Z,99800.00
2022-12-03T22:10:16.855Z,99803.00
2022-12-03T22:12:44.898Z,99806.00
2022-12-03T22:15:18.870Z,99796.00
2022-12-03T22:17:48.008Z,99801.00
2022-12-03T22:20:16.542Z,99788.00
2022-12-03T22:22:44.668Z,99778.00
2022-12-03T22:25:12.745Z,99797.00
2022-12-03T22:27:40.787Z,99794.00
2022-12-03T22:30:10.137Z,99787.00
2022-12-03T22:32:39.627Z,99787.00
2022-12-03T22:35:08.566Z,99784.00
2022-12-03T22:37:36.773Z,99779.00
2022-12-03T22:40:06.296Z,99785.00
2022-12-03T22:42:34.340Z,99773.00
2022-12-03T22:45:02.430Z,99779.00
2022-12-03T22:47:30.475Z,99780.00
2022-12-03T22:49:59.864Z,99771.00
2022-12-03T22:52:27.910Z,99782.00
2022-12-03T22:54:56.167Z,99778.00
2022-12-03T22:57:24.176Z,99773.00
2022-12-03T22:59:52.452Z,99762.00
2022-12-03T23:02:20.751Z,99764.00
2022-12-03T23:04:48.918Z,99751.00
2022-12-03T23:07:18.249Z,99757.00
2022-12-03T23:09:46.269Z,99761.00
2022-12-03T23:12:14.646Z,99765.00
2022-12-03T23:14:42.693Z,99758.00
2022-12-03T23:17:10.752Z,99765.00
2022-12-03T23:19:38.808Z,99751.00
2022-12-03T23:22:06.839Z,99755.00
2022-12-03T23:24:37.243Z,99758.00
2022-12-03T23:27:05.394Z,99745.00
2022-12-03T23:29:35.548Z,99746.00
2022-12-03T23:32:03.706Z,99742.00
2022-12-03T23:34:31.834Z,99743.00
2022-12-03T23:37:02.374Z,99741.00
2022-12-03T23:39:30.445Z,99750.00
2022-12-03T23:41:59.784Z,99749.00
2022-12-03T23:44:28.798Z,99741.00
2022-12-03T23:46:56.887Z,99746.00
2022-12-03T23:49:25.007Z,99744.00
2022-12-03T23:51:52.999Z,99735.00
2022-12-03T23:54:21.239Z,99736.00
2022-12-03T23:56:49.252Z,99741.00
2022-12-03T23:59:18.756Z,99734.00
